Time;durP1;ratioP1;P1;durP2;ratioP2;P2;SDS_P1;SDS_P2;PMS_P1;PMS_P2;Temp;Humidity;BMP_temperature;BMP_pressure;BME280_temperature;BME280_humidity;BME280_pressure;Samples;Min_cycle;Max_cycle;Signal;HPM_P1;HPM_P2
2022/09/11 00:02:00;;;;;;;4.25;2.00;;;;;;;;;;4955970;29;20018;-76
2022/09/11 00:04:26;;;;;;;4.78;2.00;;;;;;;;;;4969811;29;20036;-76
2022/09/11 00:09:55;;;;;;;5.00;2.00;;;;;;;;;;3694147;23;20128;-77
2022/09/11 00:12:22;;;;;;;7.57;2.40;;;;;;;;;;4977863;29;20130;-78
2022/09/11 00:14:49;;;;;;;3.88;2.20;;;;;;;;;;4978179;29;20046;-78
2022/09/11 00:17:17;;;;;;;3.85;1.90;;;;;;;;;;4961654;29;20058;-78
2022/09/11 00:19:43;;;;;;;5.07;2.30;;;;;;;;;;4968077;29;20040;-78
2022/09/11 00:22:10;;;;;;;2.88;1.88;;;;;;;;;;4958310;29;20050;-78
2022/09/11 00:24:36;;;;;;;2.38;1.80;;;;;;;;;;4977125;29;20019;-74
2022/09/11 00:27:02;;;;;;;4.55;1.88;;;;;;;;;;4977526;29;20032;-78
2022/09/11 00:29:28;;;;;;;4.70;2.13;;;;;;;;;;4959964;29;20074;-78
2022/09/11 00:31:56;;;;;;;4.57;1.92;;;;;;;;;;4976186;29;20011;-77
2022/09/11 00:34:22;;;;;;;5.78;2.00;;;;;;;;;;4960091;29;20024;-77
2022/09/11 00:36:48;;;;;;;9.68;2.30;;;;;;;;;;4977981;29;20012;-76
2022/09/11 00:39:15;;;;;;;3.40;2.05;;;;;;;;;;4977352;29;20034;-78
2022/09/11 00:41:43;;;;;;;4.78;2.30;;;;;;;;;;4966713;29;20037;-76
2022/09/11 00:44:16;;;;;;;4.53;2.15;;;;;;;;;;4974548;29;20027;-75
2022/09/11 00:47:12;;;;;;;3.65;2.30;;;;;;;;;;4977608;29;20043;-78
2022/09/11 00:49:42;;;;;;;5.38;2.10;;;;;;;;;;4900226;29;20045;-78
2022/09/11 00:52:09;;;;;;;4.85;2.10;;;;;;;;;;4900272;29;20663;-78
2022/09/11 00:54:39;;;;;;;3.75;2.15;;;;;;;;;;4898067;29;20040;-77
2022/09/11 00:57:07;;;;;;;4.63;2.00;;;;;;;;;;4898979;29;20041;-77
2022/09/11 00:59:33;;;;;;;3.05;1.95;;;;;;;;;;4897841;29;20037;-76
2022/09/11 01:02:00;;;;;;;3.75;1.90;;;;;;;;;;4890408;29;20129;-77
2022/09/11 01:04:28;;;;;;;3.35;1.85;;;;;;;;;;4897031;29;20049;-77
2022/09/11 01:06:55;;;;;;;3.42;1.90;;;;;;;;;;4899410;29;20041;-77
2022/09/11 01:09:22;;;;;;;2.80;2.08;;;;;;;;;;4897676;29;20049;-77
2022/09/11 01:12:02;;;;;;;3.28;1.83;;;;;;;;;;4862686;29;20049;-78
2022/09/11 01:14:48;;;;;;;3.70;1.77;;;;;;;;;;4882360;29;20025;-79
2022/09/11 01:17:52;;;;;;;3.08;2.00;;;;;;;;;;4881690;29;20037;-77
2022/09/11 01:20:22;;;;;;;2.58;1.63;;;;;;;;;;4825445;29;20043;-78
2022/09/11 01:22:57;;;;;;;4.57;1.90;;;;;;;;;;4820473;29;20039;-78
2022/09/11 01:25:37;;;;;;;5.72;2.30;;;;;;;;;;4841798;29;20048;-78
2022/09/11 01:28:09;;;;;;;4.13;1.90;;;;;;;;;;4899573;29;20068;-77
2022/09/11 01:30:40;;;;;;;4.70;2.00;;;;;;;;;;4893816;29;20037;-74
2022/09/11 01:33:06;;;;;;;4.65;2.10;;;;;;;;;;4897235;29;20037;-77
2022/09/11 01:35:32;;;;;;;2.90;1.90;;;;;;;;;;4879357;29;20144;-77
2022/09/11 01:38:17;;;;;;;3.15;1.90;;;;;;;;;;4897415;29;20164;-78
2022/09/11 01:41:09;;;;;;;4.38;2.17;;;;;;;;;;4888159;29;20069;-78
2022/09/11 01:43:50;;;;;;;4.82;2.00;;;;;;;;;;4894888;29;20101;-77
2022/09/11 01:46:21;;;;;;;4.35;2.08;;;;;;;;;;4915270;29;20095;-77
2022/09/11 01:48:48;;;;;;;2.50;1.80;;;;;;;;;;4914918;29;20057;-77
2022/09/11 01:51:18;;;;;;;3.88;2.10;;;;;;;;;;4887072;29;20037;-78
2022/09/11 01:53:46;;;;;;;6.32;2.30;;;;;;;;;;4918780;29;20036;-77
2022/09/11 01:56:18;;;;;;;2.80;1.95;;;;;;;;;;4961424;29;20087;-75
2022/09/11 01:58:46;;;;;;;3.30;2.00;;;;;;;;;;4943686;29;20146;-78
2022/09/11 02:01:15;;;;;;;5.68;1.92;;;;;;;;;;4960662;29;20004;-78
2022/09/11 02:03:44;;;;;;;2.75;2.00;;;;;;;;;;4957840;29;20040;-77
2022/09/11 02:06:14;;;;;;;4.47;1.70;;;;;;;;;;4943735;29;20019;-77
2022/09/11 02:08:45;;;;;;;2.30;1.50;;;;;;;;;;4960564;29;20040;-77
2022/09/11 02:11:13;;;;;;;2.30;1.70;;;;;;;;;;4943880;29;20048;-78
2022/09/11 02:13:45;;;;;;;3.17;1.83;;;;;;;;;;4957788;29;20032;-76
2022/09/11 02:16:21;;;;;;;2.20;1.70;;;;;;;;;;4941498;29;20023;-77
2022/09/11 02:19:02;;;;;;;4.70;1.75;;;;;;;;;;4943370;29;20024;-77
2022/09/11 02:21:36;;;;;;;2.30;1.80;;;;;;;;;;4949450;29;20040;-77
2022/09/11 02:24:04;;;;;;;3.03;1.95;;;;;;;;;;4941471;29;20052;-78
2022/09/11 02:26:32;;;;;;;3.40;2.00;;;;;;;;;;4955651;29;20055;-75
2022/09/11 02:28:58;;;;;;;5.15;2.00;;;;;;;;;;4959431;29;20052;-79
2022/09/11 02:31:25;;;;;;;6.85;1.92;;;;;;;;;;4957497;29;20015;-78
2022/09/11 02:33:51;;;;;;;2.97;1.70;;;;;;;;;;4956877;29;20032;-79
2022/09/11 02:36:25;;;;;;;4.47;2.00;;;;;;;;;;4958251;29;20123;-78
2022/09/11 02:39:00;;;;;;;4.70;2.20;;;;;;;;;;4959707;29;20015;-79
2022/09/11 02:41:54;;;;;;;3.08;1.98;;;;;;;;;;4958631;29;20064;-77
2022/09/11 02:44:30;;;;;;;3.17;2.08;;;;;;;;;;4945757;29;20074;-78
2022/09/11 02:46:59;;;;;;;5.25;2.30;;;;;;;;;;4943649;29;20028;-78
2022/09/11 02:49:34;;;;;;;2.88;2.10;;;;;;;;;;4957975;29;20070;-77
2022/09/11 02:52:13;;;;;;;3.55;1.80;;;;;;;;;;4954551;29;20106;-76
2022/09/11 02:54:48;;;;;;;8.07;1.92;;;;;;;;;;4958821;29;20023;-78
2022/09/11 02:57:14;;;;;;;5.40;1.88;;;;;;;;;;4955726;29;20066;-77
2022/09/11 03:00:00;;;;;;;3.67;2.20;;;;;;;;;;4957707;29;20028;-76
2022/09/11 03:02:26;;;;;;;2.95;1.70;;;;;;;;;;4959308;29;20031;-75
2022/09/11 03:05:00;;;;;;;2.58;1.80;;;;;;;;;;4960393;29;20043;-79
2022/09/11 03:07:29;;;;;;;4.15;2.10;;;;;;;;;;4959962;29;20019;-77
2022/09/11 03:09:55;;;;;;;4.13;1.92;;;;;;;;;;4958781;29;20149;-77
2022/09/11 03:12:21;;;;;;;2.33;1.80;;;;;;;;;;4959376;29;20008;-78
2022/09/11 03:14:48;;;;;;;2.58;1.83;;;;;;;;;;4960059;29;20091;-79
2022/09/11 03:17:16;;;;;;;2.47;1.70;;;;;;;;;;4959831;29;20034;-79
2022/09/11 03:19:42;;;;;;;4.30;1.88;;;;;;;;;;4954467;29;20016;-77
2022/09/11 03:22:09;;;;;;;2.17;1.75;;;;;;;;;;4960186;29;20027;-79
2022/09/11 03:24:35;;;;;;;3.10;1.70;;;;;;;;;;4958570;29;20032;-78
2022/09/11 03:27:01;;;;;;;2.15;1.63;;;;;;;;;;4959661;29;20036;-78
2022/09/11 03:29:27;;;;;;;2.88;1.73;;;;;;;;;;4958202;29;20038;-76
2022/09/11 03:31:53;;;;;;;2.35;1.55;;;;;;;;;;4956976;29;20089;-78
2022/09/11 03:34:19;;;;;;;3.08;1.83;;;;;;;;;;4959036;29;20028;-75
2022/09/11 03:36:47;;;;;;;3.17;1.55;;;;;;;;;;4960380;29;20035;-78
2022/09/11 03:39:13;;;;;;;1.95;1.70;;;;;;;;;;4959639;29;20024;-78
2022/09/11 03:41:39;;;;;;;3.05;1.88;;;;;;;;;;4964918;29;20032;-77
2022/09/11 03:44:05;;;;;;;2.58;1.45;;;;;;;;;;4958609;29;20079;-78
2022/09/11 03:46:31;;;;;;;3.38;1.73;;;;;;;;;;4959245;29;20035;-77
2022/09/11 03:48:58;;;;;;;3.85;1.67;;;;;;;;;;4958109;29;20020;-78
2022/09/11 03:51:30;;;;;;;1.90;1.70;;;;;;;;;;4953690;29;20091;-78
2022/09/11 03:54:00;;;;;;;2.10;1.67;;;;;;;;;;4958813;29;20470;-79
2022/09/11 03:56:27;;;;;;;2.83;1.60;;;;;;;;;;4950985;29;20042;-74
2022/09/11 03:58:56;;;;;;;1.92;1.48;;;;;;;;;;4958020;29;20039;-78
2022/09/11 04:01:22;;;;;;;3.15;1.98;;;;;;;;;;4958086;29;20067;-77
2022/09/11 04:03:49;;;;;;;1.98;1.52;;;;;;;;;;4957789;29;20035;-77
2022/09/11 04:06:17;;;;;;;3.33;1.48;;;;;;;;;;4957424;29;20100;-79
2022/09/11 04:08:44;;;;;;;3.22;1.80;;;;;;;;;;4956026;29;20068;-77
2022/09/11 04:11:13;;;;;;;1.52;1.42;;;;;;;;;;4970029;23;20051;-77
2022/09/11 04:13:40;;;;;;;2.17;1.40;;;;;;;;;;4956627;28;20429;-77
2022/09/11 04:16:14;;;;;;;1.85;1.50;;;;;;;;;;4965726;29;20030;-78
2022/09/11 04:18:40;;;;;;;3.38;2.10;;;;;;;;;;4965920;29;20015;-78
2022/09/11 04:21:07;;;;;;;2.92;1.50;;;;;;;;;;4958020;29;20032;-77
2022/09/11 04:23:33;;;;;;;2.90;1.77;;;;;;;;;;4957916;28;20021;-78
2022/09/11 04:26:00;;;;;;;2.60;1.50;;;;;;;;;;4988542;28;20073;-78
2022/09/11 04:28:32;;;;;;;3.70;1.67;;;;;;;;;;4942670;29;20039;-77
2022/09/11 04:31:02;;;;;;;2.67;1.50;;;;;;;;;;4956025;28;20308;-77
2022/09/11 04:33:28;;;;;;;7.53;2.20;;;;;;;;;;4941980;29;20007;-78
2022/09/11 04:35:54;;;;;;;5.63;2.03;;;;;;;;;;4957385;29;20023;-78
2022/09/11 04:38:21;;;;;;;3.72;2.13;;;;;;;;;;4960980;29;20070;-78
2022/09/11 04:40:48;;;;;;;3.65;2.08;;;;;;;;;;4962276;29;20042;-77
2022/09/11 04:43:16;;;;;;;3.70;2.10;;;;;;;;;;4956133;29;20027;-74
2022/09/11 04:45:42;;;;;;;2.60;1.65;;;;;;;;;;4955765;29;20039;-74
2022/09/11 04:48:08;;;;;;;4.00;2.00;;;;;;;;;;4960576;29;20066;-76
2022/09/11 04:50:34;;;;;;;4.72;1.67;;;;;;;;;;4966401;29;20105;-75
2022/09/11 04:53:00;;;;;;;3.10;1.98;;;;;;;;;;4952820;28;20024;-75
2022/09/11 04:55:26;;;;;;;2.90;1.70;;;;;;;;;;4948633;28;20043;-76
2022/09/11 05:00:28;;;;;;;3.42;2.17;;;;;;;;;;4993790;23;20070;-75
2022/09/11 05:02:56;;;;;;;2.17;1.85;;;;;;;;;;4973081;28;20015;-75
2022/09/11 05:05:22;;;;;;;2.92;1.73;;;;;;;;;;4992182;28;20090;-76
2022/09/11 05:07:49;;;;;;;2.13;1.48;;;;;;;;;;4973694;28;20014;-76
2022/09/11 05:10:15;;;;;;;1.67;1.58;;;;;;;;;;4990630;28;20034;-75
2022/09/11 05:12:42;;;;;;;3.03;1.80;;;;;;;;;;4993147;28;20019;-76
2022/09/11 05:15:33;;;;;;;5.50;1.60;;;;;;;;;;4991328;28;20565;-76
2022/09/11 05:17:59;;;;;;;3.60;2.10;;;;;;;;;;4972852;28;20366;-75
2022/09/11 05:20:25;;;;;;;3.40;2.10;;;;;;;;;;4966383;28;20031;-76
2022/09/11 05:22:54;;;;;;;2.70;1.83;;;;;;;;;;4978242;28;20094;-78
2022/09/11 05:25:20;;;;;;;6.53;2.30;;;;;;;;;;4974923;28;20079;-76
2022/09/11 05:27:46;;;;;;;3.72;2.13;;;;;;;;;;4967985;28;20031;-74
2022/09/11 05:30:15;;;;;;;3.35;1.65;;;;;;;;;;4981065;28;20114;-73
2022/09/11 05:32:42;;;;;;;3.53;1.65;;;;;;;;;;4980325;28;20003;-73
2022/09/11 05:35:11;;;;;;;4.35;1.77;;;;;;;;;;4979247;28;20035;-74
2022/09/11 05:37:37;;;;;;;2.17;1.70;;;;;;;;;;4994798;28;20019;-72
2022/09/11 05:40:04;;;;;;;5.07;1.90;;;;;;;;;;4981622;28;20031;-75
2022/09/11 05:42:39;;;;;;;256.08;55.95;;;;;;;;;;4993343;28;20505;-78
2022/09/11 05:45:06;;;;;;;216.65;55.50;;;;;;;;;;4982771;28;20026;-73
2022/09/11 05:47:37;;;;;;;160.05;102.00;;;;;;;;;;4973911;28;20025;-74
2022/09/11 05:50:20;;;;;;;7.00;2.33;;;;;;;;;;4983323;28;20018;-76
2022/09/11 05:56:12;;;;;;;3.40;1.87;;;;;;;;;;5305494;23;20133;-76
2022/09/11 05:58:45;;;;;;;5.03;2.10;;;;;;;;;;4962677;29;20289;-77
2022/09/11 06:01:21;;;;;;;4.38;2.35;;;;;;;;;;4974045;28;20032;-78
2022/09/11 06:03:51;;;;;;;4.75;2.13;;;;;;;;;;4977489;29;20042;-78
2022/09/11 06:06:39;;;;;;;4.53;2.13;;;;;;;;;;4971468;29;20107;-75
2022/09/11 06:09:06;;;;;;;3.42;1.98;;;;;;;;;;4969807;29;20079;-74
2022/09/11 06:11:35;;;;;;;2.78;1.75;;;;;;;;;;4949555;29;20018;-75
2022/09/11 06:14:07;;;;;;;4.07;2.20;;;;;;;;;;4956830;29;20038;-75
2022/09/11 06:16:44;;;;;;;3.58;2.22;;;;;;;;;;4954672;29;20032;-74
2022/09/11 06:19:11;;;;;;;4.32;2.35;;;;;;;;;;4954576;29;20028;-75
2022/09/11 06:21:37;;;;;;;5.75;2.40;;;;;;;;;;4952509;29;20023;-77
2022/09/11 06:24:04;;;;;;;5.68;2.20;;;;;;;;;;4930522;29;20056;-76
2022/09/11 06:26:56;;;;;;;4.50;2.13;;;;;;;;;;4928444;29;20121;-78
2022/09/11 06:29:45;;;;;;;3.78;2.50;;;;;;;;;;4914098;28;20020;-71
2022/09/11 06:32:11;;;;;;;4.00;2.35;;;;;;;;;;4961056;29;20024;-71
2022/09/11 06:34:38;;;;;;;4.45;2.63;;;;;;;;;;4959643;29;20036;-75
2022/09/11 06:37:06;;;;;;;2.92;2.10;;;;;;;;;;4953121;29;20525;-76
2022/09/11 06:39:38;;;;;;;3.30;2.10;;;;;;;;;;4951182;29;20540;-74
2022/09/11 06:42:05;;;;;;;5.45;2.10;;;;;;;;;;4950089;29;20040;-73
2022/09/11 06:44:32;;;;;;;4.63;2.13;;;;;;;;;;4946946;29;20046;-75
2022/09/11 06:47:08;;;;;;;5.82;2.13;;;;;;;;;;4949674;29;20103;-75
2022/09/11 06:49:58;;;;;;;4.75;2.15;;;;;;;;;;4956095;28;20083;-75
2022/09/11 06:52:34;;;;;;;8.27;2.95;;;;;;;;;;4956466;29;20015;-75
2022/09/11 06:55:06;;;;;;;8.40;2.80;;;;;;;;;;4954539;28;20104;-75
2022/09/11 06:57:40;;;;;;;5.32;2.45;;;;;;;;;;4957303;28;20048;-74
2022/09/11 07:00:12;;;;;;;12.65;8.45;;;;;;;;;;4958023;28;20038;-74
2022/09/11 07:02:39;;;;;;;7.10;5.00;;;;;;;;;;4954950;29;20032;-77
2022/09/11 07:05:21;;;;;;;5.07;3.22;;;;;;;;;;4956456;29;20044;-76
2022/09/11 07:08:01;;;;;;;2.85;2.25;;;;;;;;;;4945090;29;20040;-76
2022/09/11 07:10:29;;;;;;;4.70;2.55;;;;;;;;;;4967004;29;20027;-75
2022/09/11 07:13:03;;;;;;;3.58;2.40;;;;;;;;;;4952608;29;20056;-76
2022/09/11 07:15:33;;;;;;;4.68;2.30;;;;;;;;;;4954187;29;20477;-75
2022/09/11 07:18:47;;;;;;;5.85;2.28;;;;;;;;;;4949969;29;20047;-78
2022/09/11 07:21:28;;;;;;;3.22;2.10;;;;;;;;;;4952730;29;20125;-78
2022/09/11 07:23:57;;;;;;;3.85;2.10;;;;;;;;;;4953033;29;20024;-79
2022/09/11 07:26:49;;;;;;;4.70;3.08;;;;;;;;;;4953431;29;20047;-78
2022/09/11 07:29:40;;;;;;;3.85;2.00;;;;;;;;;;4953632;29;20036;-78
2022/09/11 07:34:50;;;;;;;4.05;1.80;;;;;;;;;;5862405;23;20059;-77
2022/09/11 07:37:38;;;;;;;2.03;1.70;;;;;;;;;;4971801;29;20077;-77
2022/09/11 07:40:07;;;;;;;7.38;1.73;;;;;;;;;;4948887;29;20035;-75
2022/09/11 07:42:33;;;;;;;3.97;1.88;;;;;;;;;;4953551;28;20023;-72
2022/09/11 07:44:59;;;;;;;44.97;8.98;;;;;;;;;;4950464;28;20121;-71
2022/09/11 07:47:25;;;;;;;15.57;4.22;;;;;;;;;;4955550;29;20058;-71
2022/09/11 07:49:51;;;;;;;8.38;2.30;;;;;;;;;;4955228;28;20031;-71
2022/09/11 07:52:23;;;;;;;5.63;2.00;;;;;;;;;;4957117;29;20074;-75
2022/09/11 07:54:50;;;;;;;8.10;2.90;;;;;;;;;;4940664;29;20492;-75
2022/09/11 07:57:23;;;;;;;3.92;1.40;;;;;;;;;;4979704;28;20039;-75
2022/09/11 08:00:05;;;;;;;19.95;4.43;;;;;;;;;;4980045;28;20090;-74
2022/09/11 08:02:35;;;;;;;5.45;2.67;;;;;;;;;;4978939;28;20015;-75
2022/09/11 08:05:06;;;;;;;15.75;4.60;;;;;;;;;;4967236;28;20082;-73
2022/09/11 08:07:35;;;;;;;29.00;8.00;;;;;;;;;;4940119;29;20031;-73
2022/09/11 08:10:01;;;;;;;8.05;2.63;;;;;;;;;;4966219;28;20027;-73
2022/09/11 08:12:30;;;;;;;14.40;3.72;;;;;;;;;;4954804;29;20393;-74
2022/09/11 08:14:56;;;;;;;7.70;3.15;;;;;;;;;;4967204;29;20032;-71
2022/09/11 08:17:22;;;;;;;8.27;2.97;;;;;;;;;;4955499;29;20031;-71
2022/09/11 08:19:48;;;;;;;6.68;2.47;;;;;;;;;;4955821;29;20091;-74
2022/09/11 08:22:53;;;;;;;7.28;2.47;;;;;;;;;;4963401;29;20520;-74
2022/09/11 08:25:24;;;;;;;2.15;1.73;;;;;;;;;;4972286;29;20050;-74
2022/09/11 08:27:58;;;;;;;6.63;2.70;;;;;;;;;;4974706;29;20043;-75
2022/09/11 08:30:24;;;;;;;4.20;2.10;;;;;;;;;;4960669;29;20042;-74
2022/09/11 08:32:50;;;;;;;6.13;2.60;;;;;;;;;;4974479;29;20079;-72
2022/09/11 08:35:16;;;;;;;7.72;2.70;;;;;;;;;;4968406;29;20031;-75
2022/09/11 08:37:42;;;;;;;2.13;1.52;;;;;;;;;;4934560;29;20094;-73
2022/09/11 08:40:32;;;;;;;2.17;1.42;;;;;;;;;;4957202;29;20063;-74
2022/09/11 08:43:00;;;;;;;4.15;1.80;;;;;;;;;;4958644;28;20028;-75
2022/09/11 08:45:34;;;;;;;8.38;1.95;;;;;;;;;;4948713;29;20468;-77
2022/09/11 08:48:11;;;;;;;6.60;2.05;;;;;;;;;;4948021;29;20482;-75
2022/09/11 08:50:41;;;;;;;5.10;1.90;;;;;;;;;;4954205;29;20083;-74
2022/09/11 08:53:14;;;;;;;5.18;2.05;;;;;;;;;;4964875;29;20504;-74
2022/09/11 08:55:44;;;;;;;1.88;1.55;;;;;;;;;;4966459;28;20024;-74
2022/09/11 08:58:29;;;;;;;6.20;2.10;;;;;;;;;;4960590;29;20031;-76
2022/09/11 09:01:07;;;;;;;3.42;1.80;;;;;;;;;;4968896;29;20027;-74
2022/09/11 09:03:46;;;;;;;3.75;1.80;;;;;;;;;;4966555;29;20031;-74
2022/09/11 09:06:23;;;;;;;7.45;2.25;;;;;;;;;;4968046;29;20031;-77
2022/09/11 09:09:08;;;;;;;5.15;1.85;;;;;;;;;;4969868;29;20023;-75
2022/09/11 09:11:37;;;;;;;2.15;1.52;;;;;;;;;;4969713;29;20082;-73
2022/09/11 09:14:05;;;;;;;4.97;1.83;;;;;;;;;;4950354;29;20031;-74
2022/09/11 09:16:31;;;;;;;3.83;1.73;;;;;;;;;;4958628;29;20023;-74
2022/09/11 09:19:08;;;;;;;2.92;1.60;;;;;;;;;;4958853;29;20027;-75
2022/09/11 09:21:34;;;;;;;8.65;2.30;;;;;;;;;;4952839;29;20023;-75
2022/09/11 09:24:03;;;;;;;5.78;2.00;;;;;;;;;;4957937;29;20039;-74
2022/09/11 09:26:33;;;;;;;4.28;1.73;;;;;;;;;;4963539;29;20024;-75
2022/09/11 09:29:02;;;;;;;5.53;1.92;;;;;;;;;;4957596;29;20035;-75
2022/09/11 09:31:29;;;;;;;2.45;1.70;;;;;;;;;;4951086;29;20031;-75
2022/09/11 09:34:18;;;;;;;4.35;2.45;;;;;;;;;;4959875;29;20031;-74
2022/09/11 09:36:54;;;;;;;14.35;7.65;;;;;;;;;;4957721;28;20043;-75
2022/09/11 09:39:22;;;;;;;3.22;2.45;;;;;;;;;;4970887;28;20023;-74
2022/09/11 09:41:55;;;;;;;2.53;1.70;;;;;;;;;;4961572;29;20094;-74
2022/09/11 09:44:22;;;;;;;;;;;;;;;;;;4978504;29;20003;-73
2022/09/11 09:46:51;;;;;;;4.18;2.25;;;;;;;;;;4958789;29;19919;-74
2022/09/11 09:49:24;;;;;;;2.75;1.90;;;;;;;;;;4975920;29;20027;-73
2022/09/11 09:51:50;;;;;;;3.83;2.00;;;;;;;;;;4971567;28;20059;-73
2022/09/11 09:54:19;;;;;;;3.35;1.70;;;;;;;;;;4959382;29;20032;-73
2022/09/11 09:56:55;;;;;;;3.88;1.70;;;;;;;;;;4958580;29;20471;-74
2022/09/11 09:59:26;;;;;;;3.92;1.80;;;;;;;;;;4961789;29;20027;-73
2022/09/11 10:01:53;;;;;;;5.20;1.65;;;;;;;;;;4975775;29;20031;-73
2022/09/11 10:04:23;;;;;;;1.88;1.50;;;;;;;;;;4968687;29;20018;-74
2022/09/11 10:06:51;;;;;;;4.70;1.67;;;;;;;;;;4976778;28;20038;-73
2022/09/11 10:09:24;;;;;;;2.50;1.70;;;;;;;;;;4975259;29;20035;-74
2022/09/11 10:11:51;;;;;;;8.68;2.28;;;;;;;;;;4969790;29;20022;-73
2022/09/11 10:14:20;;;;;;;4.65;2.58;;;;;;;;;;4977225;29;20083;-74
2022/09/11 10:16:50;;;;;;;3.85;2.05;;;;;;;;;;4976454;29;20027;-73
2022/09/11 10:19:45;;;;;;;1.92;1.63;;;;;;;;;;4971433;29;20038;-73
2022/09/11 10:22:24;;;;;;;3.30;1.95;;;;;;;;;;4901872;29;20029;-74
2022/09/11 10:25:18;;;;;;;5.13;2.20;;;;;;;;;;4887471;29;20033;-73
2022/09/11 10:28:03;;;;;;;4.03;2.08;;;;;;;;;;4891323;29;20045;-76
2022/09/11 10:30:44;;;;;;;1.58;1.45;;;;;;;;;;4894527;29;20040;-74
2022/09/11 10:33:13;;;;;;;;;;;;;;;;;;4896437;29;20070;-74
2022/09/11 10:35:39;;;;;;;3.17;1.63;;;;;;;;;;4895805;29;19958;-74
2022/09/11 10:38:16;;;;;;;4.18;2.05;;;;;;;;;;4898427;29;20041;-74
2022/09/11 10:40:52;;;;;;;5.03;3.53;;;;;;;;;;4899265;29;20029;-74
2022/09/11 10:43:39;;;;;;;5.22;1.70;;;;;;;;;;4896543;29;20033;-73
2022/09/11 10:46:27;;;;;;;2.35;1.58;;;;;;;;;;4892723;29;20053;-73
2022/09/11 10:48:58;;;;;;;6.68;2.10;;;;;;;;;;4885456;29;20575;-74
2022/09/11 10:51:25;;;;;;;8.93;2.67;;;;;;;;;;4885098;29;20041;-73
2022/09/11 10:54:18;;;;;;;3.33;2.03;;;;;;;;;;4895937;29;20112;-72
2022/09/11 10:59:57;;;;;;;3.78;1.90;;;;;;;;;;4973319;28;20042;-75
2022/09/11 11:02:32;;;;;;;3.40;1.80;;;;;;;;;;4972316;29;20039;-76
2022/09/11 11:08:39;;;;;;;4.93;2.00;;;;;;;;;;4939555;29;20046;-79
2022/09/11 11:11:25;;;;;;;4.20;1.85;;;;;;;;;;4909901;29;20021;-71
2022/09/11 11:14:12;;;;;;;2.33;2.00;;;;;;;;;;4929618;29;20036;-75
2022/09/11 11:16:40;;;;;;;3.42;1.70;;;;;;;;;;4913182;29;20091;-73
2022/09/11 11:19:31;;;;;;;3.95;1.90;;;;;;;;;;4925221;29;20028;-73
2022/09/11 11:22:16;;;;;;;3.67;1.60;;;;;;;;;;4918937;29;20139;-73
2022/09/11 11:24:42;;;;;;;4.80;1.75;;;;;;;;;;4930177;29;20111;-73
2022/09/11 11:27:27;;;;;;;3.38;1.67;;;;;;;;;;4924826;29;20039;-73
2022/09/11 11:30:01;;;;;;;2.17;1.80;;;;;;;;;;4945611;29;20039;-73
2022/09/11 11:32:42;;;;;;;2.72;2.08;;;;;;;;;;4940417;29;20072;-74
2022/09/11 11:35:28;;;;;;;3.00;2.00;;;;;;;;;;4953733;29;20012;-73
2022/09/11 11:38:10;;;;;;;1.92;1.60;;;;;;;;;;4960797;29;20075;-72
2022/09/11 11:40:42;;;;;;;5.55;2.00;;;;;;;;;;4961574;29;20042;-73
2022/09/11 11:43:12;;;;;;;2.95;1.77;;;;;;;;;;4961759;29;20012;-72
2022/09/11 11:45:41;;;;;;;6.18;1.83;;;;;;;;;;4979632;29;20091;-73
2022/09/11 11:48:15;;;;;;;2.53;1.75;;;;;;;;;;4979597;28;20063;-72
2022/09/11 11:50:46;;;;;;;2.38;1.80;;;;;;;;;;4979148;29;20031;-73
2022/09/11 11:53:25;;;;;;;2.63;1.80;;;;;;;;;;4978822;29;20165;-73
2022/09/11 11:56:14;;;;;;;2.78;2.10;;;;;;;;;;4961425;29;20039;-73
2022/09/11 11:58:53;;;;;;;2.60;1.50;;;;;;;;;;4978358;29;20051;-73
2022/09/11 12:01:23;;;;;;;6.32;2.10;;;;;;;;;;4979087;28;20019;-73
2022/09/11 12:04:03;;;;;;;3.40;2.00;;;;;;;;;;4977745;28;20031;-75
2022/09/11 12:06:30;;;;;;;4.45;2.00;;;;;;;;;;4973854;29;20007;-74
2022/09/11 12:08:57;;;;;;;3.08;1.80;;;;;;;;;;4979521;28;20036;-74
2022/09/11 12:11:33;;;;;;;2.92;1.85;;;;;;;;;;4978891;28;20022;-74
2022/09/11 12:14:01;;;;;;;2.83;1.50;;;;;;;;;;4978541;29;20011;-74
2022/09/11 12:16:36;;;;;;;3.80;1.90;;;;;;;;;;4978614;29;20035;-74
2022/09/11 12:19:24;;;;;;;3.78;1.80;;;;;;;;;;4978249;29;20027;-74
2022/09/11 12:22:11;;;;;;;12.07;8.70;;;;;;;;;;4976616;28;20099;-74
2022/09/11 12:24:59;;;;;;;4.38;2.70;;;;;;;;;;4975550;29;20063;-74
2022/09/11 12:27:51;;;;;;;2.22;2.00;;;;;;;;;;4959279;29;20043;-75
2022/09/11 12:30:44;;;;;;;3.45;2.08;;;;;;;;;;4900868;29;20040;-74
2022/09/11 12:33:30;;;;;;;3.42;2.30;;;;;;;;;;4883381;29;20040;-74
2022/09/11 12:35:57;;;;;;;3.15;2.10;;;;;;;;;;4900551;29;20040;-74
2022/09/11 12:41:35;;;;;;;2.78;2.13;;;;;;;;;;4902494;29;20054;-74
2022/09/11 12:44:29;;;;;;;3.97;2.30;;;;;;;;;;4902993;29;20085;-74
2022/09/11 12:47:15;;;;;;;3.67;2.20;;;;;;;;;;4856624;29;20021;-74
2022/09/11 12:52:53;;;;;;;2.78;1.88;;;;;;;;;;4902761;29;20028;-73
2022/09/11 12:55:38;;;;;;;3.67;2.20;;;;;;;;;;4902509;29;20088;-74
2022/09/11 12:58:27;;;;;;;;;;;;;;;;;;4856699;29;20033;-74
2022/09/11 13:01:12;;;;;;;4.18;1.98;;;;;;;;;;4902651;29;19900;-74
2022/09/11 13:06:53;;;;;;;;;;;;;;;;;;4844816;29;20084;-75
2022/09/11 13:12:40;;;;;;;5.32;2.00;;;;;;;;;;4865912;29;20039;-74
2022/09/11 13:15:26;;;;;;;2.50;2.08;;;;;;;;;;4862499;29;20146;-74
2022/09/11 13:17:53;;;;;;;4.43;1.80;;;;;;;;;;4856277;29;20030;-74
2022/09/11 13:20:21;;;;;;;3.88;1.85;;;;;;;;;;4856703;29;20034;-74
2022/09/11 13:25:51;;;;;;;2.60;1.83;;;;;;;;;;4865639;29;20033;-74
2022/09/11 13:28:34;;;;;;;3.47;2.03;;;;;;;;;;4852378;29;20060;-74
2022/09/11 13:31:03;;;;;;;3.85;2.00;;;;;;;;;;4865135;29;20074;-73
2022/09/11 13:36:23;;;;;;;4.57;2.20;;;;;;;;;;4851228;29;20048;-74
2022/09/11 13:38:53;;;;;;;4.13;1.88;;;;;;;;;;4864184;29;20093;-74
2022/09/11 13:41:30;;;;;;;2.92;1.80;;;;;;;;;;4850108;29;20029;-74
2022/09/11 13:43:58;;;;;;;2.22;1.80;;;;;;;;;;4956757;29;20040;-74
2022/09/11 13:46:33;;;;;;;2.40;1.77;;;;;;;;;;4963265;29;20031;-74
2022/09/11 13:49:48;;;;;;;4.07;2.05;;;;;;;;;;4962458;28;20024;-74
2022/09/11 13:52:39;;;;;;;1.77;1.60;;;;;;;;;;4959719;29;20046;-75
2022/09/11 13:55:17;;;;;;;3.95;2.05;;;;;;;;;;4955665;29;20026;-74
2022/09/11 13:58:19;;;;;;;1.85;1.55;;;;;;;;;;4960563;29;20039;-74
2022/09/11 14:01:04;;;;;;;2.03;1.45;;;;;;;;;;4953242;29;20072;-74
2022/09/11 14:03:46;;;;;;;1.75;1.63;;;;;;;;;;4917914;29;20036;-74
2022/09/11 14:06:18;;;;;;;3.90;1.58;;;;;;;;;;4955316;29;20485;-74
2022/09/11 14:08:55;;;;;;;4.65;2.13;;;;;;;;;;4953702;29;20024;-74
2022/09/11 14:11:36;;;;;;;4.13;1.75;;;;;;;;;;4957332;29;20036;-74
2022/09/11 14:14:05;;;;;;;5.38;1.60;;;;;;;;;;4953765;29;20030;-74
2022/09/11 14:16:33;;;;;;;5.15;1.75;;;;;;;;;;4955692;29;20012;-74
2022/09/11 14:19:02;;;;;;;6.78;2.20;;;;;;;;;;4962188;29;20051;-75
2022/09/11 14:21:39;;;;;;;2.60;1.50;;;;;;;;;;4958791;29;20024;-74
2022/09/11 14:24:21;;;;;;;4.07;1.63;;;;;;;;;;4952611;29;20027;-74
2022/09/11 14:26:47;;;;;;;2.92;1.73;;;;;;;;;;4957215;29;20043;-75
2022/09/11 14:29:30;;;;;;;3.65;1.50;;;;;;;;;;4955078;29;20055;-75
2022/09/11 14:32:18;;;;;;;4.90;1.95;;;;;;;;;;4954101;29;20047;-75
2022/09/11 14:34:45;;;;;;;2.05;1.50;;;;;;;;;;4943215;29;20106;-75
2022/09/11 14:37:39;;;;;;;2.72;1.40;;;;;;;;;;4956673;29;20084;-74
2022/09/11 14:40:06;;;;;;;1.70;1.38;;;;;;;;;;4954001;29;20035;-75
2022/09/11 14:42:52;;;;;;;1.83;1.48;;;;;;;;;;4960617;29;20027;-75
2022/09/11 14:45:24;;;;;;;2.45;1.70;;;;;;;;;;4965075;29;20043;-75
2022/09/11 14:47:51;;;;;;;8.15;1.52;;;;;;;;;;4954614;29;20023;-75
2022/09/11 14:50:25;;;;;;;6.70;1.60;;;;;;;;;;4969190;29;20031;-75
2022/09/11 14:52:52;;;;;;;2.20;1.55;;;;;;;;;;4946168;29;20095;-76
2022/09/11 14:55:19;;;;;;;2.65;1.50;;;;;;;;;;4968827;29;20034;-77
2022/09/11 14:57:47;;;;;;;2.85;1.50;;;;;;;;;;4971502;28;20035;-78
2022/09/11 15:00:14;;;;;;;5.43;1.52;;;;;;;;;;4953422;29;20394;-77
2022/09/11 15:02:41;;;;;;;1.83;1.55;;;;;;;;;;4963374;29;20023;-76
2022/09/11 15:05:14;;;;;;;2.15;1.30;;;;;;;;;;4960563;29;20050;-76
2022/09/11 15:07:42;;;;;;;;;;;;;;;;;;4944302;29;20023;-77
2022/09/11 15:10:09;;;;;;;1.30;1.10;;;;;;;;;;4953852;28;19910;-76
2022/09/11 15:12:35;;;;;;;3.53;1.20;;;;;;;;;;4957222;29;20130;-75
2022/09/11 15:15:02;;;;;;;3.05;1.63;;;;;;;;;;4958254;29;20070;-74
2022/09/11 15:17:30;;;;;;;2.72;1.60;;;;;;;;;;4969314;29;20027;-77
2022/09/11 15:23:04;;;;;;;3.25;2.08;;;;;;;;;;5207455;23;20058;-76
2022/09/11 15:25:32;;;;;;;15.50;10.98;;;;;;;;;;4961394;28;20043;-78
2022/09/11 15:28:39;;;;;;;4.18;2.65;;;;;;;;;;4969746;28;20015;-78
2022/09/11 15:31:19;;;;;;;2.75;1.83;;;;;;;;;;4977631;28;20031;-77
2022/09/11 15:33:51;;;;;;;2.20;1.52;;;;;;;;;;4963617;29;20049;-74
2022/09/11 15:36:40;;;;;;;3.00;1.45;;;;;;;;;;4958006;29;20080;-77
2022/09/11 15:39:11;;;;;;;4.88;1.80;;;;;;;;;;4965966;28;20049;-76
2022/09/11 15:41:37;;;;;;;2.65;1.58;;;;;;;;;;4936581;29;20031;-75
2022/09/11 15:44:10;;;;;;;3.33;1.75;;;;;;;;;;4958368;29;20031;-75
2022/09/11 15:46:36;;;;;;;2.38;1.52;;;;;;;;;;4961550;29;20071;-77
2022/09/11 15:49:02;;;;;;;3.42;1.60;;;;;;;;;;4964571;29;20051;-76
2022/09/11 15:51:30;;;;;;;1.48;1.30;;;;;;;;;;4960962;29;20042;-75
2022/09/11 15:54:01;;;;;;;2.05;1.60;;;;;;;;;;4961245;29;20125;-76
2022/09/11 15:56:28;;;;;;;2.05;1.60;;;;;;;;;;4961207;29;20470;-74
2022/09/11 15:58:56;;;;;;;2.85;1.90;;;;;;;;;;4957383;29;20035;-75